Terminal Aerodrome Forecast
Issued by NWS

Home | Current Version | Previous Version | Text Only | Print | Product List | Glossary On
Versions: 1 2 3 4 5 6 7 8 9 10 11 12 13 14 15 16 17 18
383
FTUS43 KDLH 200529
TAFHYR
TAF
KHYR 200529Z 2006/2106 00000KT P6SM SCT070
      TEMPO 2009/2013 6SM -SHRA SCT025 BKN060
     FM201400 30006KT P6SM BKN060
     FM201800 33008KT P6SM BKN060
     FM210000 VRB03KT P6SM SCT050=

USA.gov is the U.S. government's official web portal to all federal, state and local government web resources and services.